createdAt,value
2023-05-13T00:01:09.013Z,6.40
2023-05-13T00:03:35.630Z,7.38
2023-05-13T00:06:02.151Z,10.02
2023-05-13T00:08:28.681Z,5.68
2023-05-13T00:10:55.227Z,6.50
2023-05-13T00:13:21.747Z,6.28
2023-05-13T00:15:48.265Z,8.85
2023-05-13T00:18:14.770Z,6.80
2023-05-13T00:20:41.502Z,9.07
2023-05-13T00:23:08.574Z,6.25
2023-05-13T00:25:35.138Z,9.38
2023-05-13T00:28:01.640Z,6.60
2023-05-13T00:30:28.148Z,9.40
2023-05-13T00:32:54.969Z,6.20
2023-05-13T00:35:21.588Z,9.82
2023-05-13T00:37:48.093Z,6.63
2023-05-13T00:40:20.862Z,12.80
2023-05-13T00:42:47.657Z,8.02
2023-05-13T00:45:14.238Z,6.28
2023-05-13T00:47:42.907Z,6.20
2023-05-13T00:50:11.080Z,7.60
2023-05-13T00:52:39.657Z,6.57
2023-05-13T00:55:07.610Z,6.28
2023-05-13T00:57:35.096Z,7.38
2023-05-13T01:00:03.603Z,12.25
2023-05-13T01:02:39.497Z,6.63
2023-05-13T01:05:43.248Z,7.32
2023-05-13T01:08:29.168Z,7.18
2023-05-13T01:11:03.788Z,7.00
2023-05-13T01:13:36.918Z,8.30
2023-05-13T01:16:41.255Z,7.60
2023-05-13T01:19:33.336Z,11.13
2023-05-13T01:24:26.248Z,8.48
2023-05-13T01:26:53.035Z,9.68
2023-05-13T01:29:19.477Z,6.78
2023-05-13T01:31:47.456Z,7.00
2023-05-13T01:34:15.996Z,10.80
2023-05-13T01:36:43.747Z,7.55
2023-05-13T01:39:12.169Z,7.00
2023-05-13T01:41:39.132Z,9.05
2023-05-13T01:44:06.357Z,8.75
2023-05-13T01:46:33.084Z,8.63
2023-05-13T01:48:59.582Z,7.38
2023-05-13T01:51:26.304Z,8.90
2023-05-13T01:53:52.757Z,6.93
2023-05-13T01:56:21.214Z,11.77
2023-05-13T01:58:48.713Z,16.73
2023-05-13T02:01:15.292Z,10.75
2023-05-13T02:03:42.597Z,8.02
2023-05-13T02:06:09.206Z,9.68
2023-05-13T02:08:40.290Z,8.80
2023-05-13T02:11:06.904Z,8.05
2023-05-13T02:13:33.385Z,8.27
2023-05-13T02:15:59.907Z,7.63
2023-05-13T02:18:26.554Z,8.15
2023-05-13T02:20:53.021Z,7.88
2023-05-13T02:23:19.522Z,9.00
2023-05-13T02:25:46.038Z,8.10
2023-05-13T02:28:12.512Z,10.20
2023-05-13T02:30:38.927Z,9.15
2023-05-13T02:33:06.938Z,9.82
2023-05-13T02:35:33.680Z,10.35
2023-05-13T02:38:01.121Z,8.23
2023-05-13T02:40:28.563Z,8.93
2023-05-13T02:42:55.007Z,10.65
2023-05-13T02:45:29.849Z,9.65
2023-05-13T02:47:57.512Z,9.50
2023-05-13T02:50:24.362Z,11.18
2023-05-13T02:52:51.230Z,10.43
2023-05-13T02:55:18.158Z,12.20
2023-05-13T02:57:44.750Z,9.50
2023-05-13T03:00:13.098Z,11.95
2023-05-13T03:02:40.020Z,9.43
2023-05-13T03:05:07.004Z,11.00
2023-05-13T03:07:33.885Z,12.05
2023-05-13T03:10:00.289Z,9.23
2023-05-13T03:12:26.850Z,13.23
2023-05-13T03:14:53.342Z,13.50
2023-05-13T03:17:19.874Z,9.57
2023-05-13T03:19:46.671Z,9.45
2023-05-13T03:22:14.026Z,9.93
2023-05-13T03:24:42.675Z,10.07
2023-05-13T03:27:09.641Z,10.57
2023-05-13T03:29:38.724Z,9.95
2023-05-13T03:32:06.467Z,10.85
2023-05-13T03:34:33.464Z,12.95
2023-05-13T03:36:59.902Z,10.00
2023-05-13T03:39:28.390Z,12.32
2023-05-13T03:41:55.067Z,12.02
2023-05-13T03:44:22.147Z,12.75
2023-05-13T03:46:48.630Z,12.38
2023-05-13T03:49:16.089Z,14.13
2023-05-13T03:51:42.538Z,11.43
2023-05-13T03:54:09.556Z,11.80
2023-05-13T03:56:36.058Z,12.98
2023-05-13T03:59:02.590Z,13.82
2023-05-13T04:01:30.050Z,11.77
2023-05-13T04:03:56.606Z,10.95
2023-05-13T04:06:23.109Z,20.35
2023-05-13T04:08:51.518Z,13.55
2023-05-13T04:11:17.994Z,12.07
2023-05-13T04:13:45.951Z,15.77
2023-05-13T04:16:12.620Z,12.00
2023-05-13T04:18:39.135Z,18.55
2023-05-13T04:21:09.702Z,13.02
2023-05-13T04:23:36.293Z,15.40
2023-05-13T04:26:02.848Z,12.38
2023-05-13T04:28:29.738Z,11.48
2023-05-13T04:30:57.481Z,15.27
2023-05-13T04:33:24.208Z,16.27
2023-05-13T04:35:50.667Z,15.13
2023-05-13T04:38:17.228Z,13.18
2023-05-13T04:40:44.673Z,13.43
2023-05-13T04:43:16.085Z,16.02
2023-05-13T04:45:50.358Z,14.60
2023-05-13T04:48:16.928Z,13.90
2023-05-13T04:50:46.901Z,13.00
2023-05-13T04:53:14.975Z,13.02
2023-05-13T04:55:41.718Z,12.25
2023-05-13T04:58:08.252Z,14.88
2023-05-13T05:00:35.902Z,11.35
2023-05-13T05:03:02.397Z,13.68
2023-05-13T05:05:29.500Z,18.23
2023-05-13T05:07:56.200Z,10.70
2023-05-13T05:10:22.806Z,11.10
2023-05-13T05:12:54.022Z,11.18
2023-05-13T05:15:21.817Z,13.20
2023-05-13T05:17:52.285Z,13.65
2023-05-13T05:20:19.057Z,11.10
2023-05-13T05:22:50.141Z,11.20
2023-05-13T05:25:17.819Z,14.85
2023-05-13T05:27:44.361Z,10.63
2023-05-13T05:30:11.556Z,13.40
2023-05-13T05:32:39.148Z,11.85
2023-05-13T05:35:06.431Z,10.55
2023-05-13T05:37:33.593Z,11.63
2023-05-13T05:40:00.391Z,16.60
2023-05-13T05:42:27.433Z,10.23
2023-05-13T05:44:53.902Z,12.35
2023-05-13T05:47:20.454Z,11.45
2023-05-13T05:49:46.941Z,11.77
2023-05-13T05:52:14.246Z,16.77
2023-05-13T05:54:40.749Z,10.57
2023-05-13T05:57:07.215Z,11.27
2023-05-13T05:59:33.731Z,11.65
2023-05-13T06:02:00.882Z,14.23
2023-05-13T06:04:27.489Z,12.75
2023-05-13T06:06:54.022Z,11.00
2023-05-13T06:09:22.552Z,13.90
2023-05-13T06:11:49.188Z,11.65
2023-05-13T06:14:17.108Z,11.15
2023-05-13T06:16:43.553Z,14.80
2023-05-13T06:19:10.471Z,10.10
2023-05-13T06:21:37.013Z,10.80
2023-05-13T06:24:03.451Z,11.93
2023-05-13T06:26:29.909Z,11.45
2023-05-13T06:28:56.625Z,11.45
2023-05-13T06:31:26.223Z,14.02
2023-05-13T06:33:52.747Z,11.73
2023-05-13T06:36:19.251Z,11.65
2023-05-13T06:38:46.053Z,11.15
2023-05-13T06:41:12.588Z,10.65
2023-05-13T06:43:39.936Z,10.95
2023-05-13T06:46:13.617Z,11.70
2023-05-13T06:48:40.201Z,15.75
2023-05-13T06:51:07.115Z,13.25
2023-05-13T06:53:33.642Z,12.52
2023-05-13T06:56:00.184Z,13.77
2023-05-13T06:58:27.748Z,12.70
2023-05-13T07:00:54.289Z,18.20
2023-05-13T07:03:23.432Z,11.38
2023-05-13T07:05:49.939Z,10.05
2023-05-13T07:08:19.783Z,12.77
2023-05-13T07:10:46.512Z,15.10
2023-05-13T07:13:13.144Z,8.77
2023-05-13T07:15:42.560Z,9.55
2023-05-13T07:18:09.350Z,13.45
2023-05-13T07:20:35.821Z,9.32
2023-05-13T07:23:02.631Z,9.55
2023-05-13T07:25:29.214Z,10.10
2023-05-13T07:27:55.702Z,15.73
2023-05-13T07:30:22.736Z,11.60
2023-05-13T07:32:50.216Z,11.48
2023-05-13T07:35:18.011Z,14.93
2023-05-13T07:37:44.735Z,9.10
2023-05-13T07:40:11.569Z,12.35
2023-05-13T07:42:38.033Z,14.52
2023-05-13T07:45:05.341Z,15.85
2023-05-13T07:47:31.941Z,9.15
2023-05-13T07:49:58.411Z,9.52
2023-05-13T07:52:25.342Z,9.40
2023-05-13T07:54:51.855Z,10.68
2023-05-13T07:57:18.702Z,14.77
2023-05-13T07:59:45.339Z,9.63
2023-05-13T08:02:12.611Z,10.95
2023-05-13T08:04:39.194Z,9.63
2023-05-13T08:07:06.234Z,8.80
2023-05-13T08:09:32.798Z,8.77
2023-05-13T08:11:59.253Z,8.55
2023-05-13T08:14:25.655Z,8.48
2023-05-13T08:16:52.167Z,11.77
2023-05-13T08:19:19.906Z,11.18
2023-05-13T08:21:46.695Z,8.70
2023-05-13T08:24:13.293Z,8.73
2023-05-13T08:26:39.812Z,12.07
2023-05-13T08:29:06.299Z,8.30
2023-05-13T08:31:33.089Z,8.85
2023-05-13T08:33:59.549Z,11.20
2023-05-13T08:36:26.499Z,9.07
2023-05-13T08:38:53.303Z,9.68
2023-05-13T08:41:21.882Z,8.70
2023-05-13T08:43:51.903Z,13.93
2023-05-13T08:46:18.510Z,8.23
2023-05-13T08:48:45.824Z,7.90
2023-05-13T08:51:12.425Z,9.48
2023-05-13T08:53:40.728Z,8.93
2023-05-13T08:56:08.368Z,11.05
2023-05-13T08:58:35.147Z,9.45
2023-05-13T09:01:03.581Z,8.93
2023-05-13T09:03:31.540Z,8.35
2023-05-13T09:06:01.474Z,9.63
2023-05-13T09:08:27.947Z,8.52
2023-05-13T09:10:54.756Z,10.23
2023-05-13T09:13:21.708Z,9.43
2023-05-13T09:15:50.325Z,8.52
2023-05-13T09:18:18.857Z,11.43
2023-05-13T09:20:45.983Z,11.50
2023-05-13T09:23:13.346Z,10.18
2023-05-13T09:25:40.249Z,9.32
2023-05-13T09:28:07.873Z,11.00
2023-05-13T09:30:40.658Z,8.48
2023-05-13T09:33:14.674Z,8.45
2023-05-13T09:35:43.721Z,11.23
2023-05-13T09:38:20.563Z,11.55
2023-05-13T09:40:58.235Z,10.52
2023-05-13T09:43:31.763Z,8.02
2023-05-13T09:46:01.899Z,10.27
2023-05-13T09:48:31.247Z,7.45
2023-05-13T09:50:58.412Z,8.48
2023-05-13T09:53:26.218Z,12.07
2023-05-13T09:55:55.341Z,9.25
2023-05-13T09:58:24.315Z,9.35
2023-05-13T10:00:51.991Z,7.90
2023-05-13T10:03:18.536Z,8.13
2023-05-13T10:05:45.240Z,11.00
2023-05-13T10:08:14.154Z,8.63
2023-05-13T10:10:42.247Z,9.63
2023-05-13T10:13:10.980Z,9.13
2023-05-13T10:15:52.678Z,8.13
2023-05-13T10:18:20.866Z,7.85
2023-05-13T10:20:52.940Z,7.28
2023-05-13T10:23:20.548Z,7.50
2023-05-13T10:25:55.295Z,7.70
2023-05-13T10:28:22.486Z,13.15
2023-05-13T10:30:52.520Z,10.55
2023-05-13T10:33:19.737Z,9.50
2023-05-13T10:36:04.422Z,11.77
2023-05-13T10:39:00.451Z,8.82
2023-05-13T10:41:57.997Z,8.82
2023-05-13T10:44:24.501Z,7.28
2023-05-13T10:46:51.079Z,7.53
2023-05-13T10:49:17.590Z,11.20
2023-05-13T10:51:49.148Z,10.45
2023-05-13T10:54:20.924Z,7.60
2023-05-13T10:56:57.498Z,9.20
2023-05-13T10:59:23.977Z,9.68
2023-05-13T11:01:50.605Z,7.05
2023-05-13T11:04:19.850Z,13.45
2023-05-13T11:06:50.040Z,7.80
2023-05-13T11:09:22.861Z,6.77
2023-05-13T11:11:54.440Z,7.13
2023-05-13T11:14:22.952Z,6.93
2023-05-13T11:17:12.525Z,6.90
2023-05-13T11:19:46.641Z,7.90
2023-05-13T11:22:21.207Z,9.07
2023-05-13T11:25:09.239Z,6.72
2023-05-13T11:27:40.956Z,9.38
2023-05-13T11:30:21.018Z,6.68
2023-05-13T11:32:51.005Z,9.70
2023-05-13T11:35:24.080Z,6.50
2023-05-13T11:37:50.944Z,9.00
2023-05-13T11:40:32.311Z,8.25
2023-05-13T11:42:59.677Z,6.38
2023-05-13T11:45:27.618Z,8.80
2023-05-13T11:47:54.642Z,7.15
2023-05-13T11:50:21.646Z,5.85
2023-05-13T11:52:53.383Z,5.40
2023-05-13T11:55:33.979Z,9.82
2023-05-13T11:58:00.656Z,5.38
2023-05-13T12:00:27.764Z,5.50
2023-05-13T12:02:55.420Z,11.15
2023-05-13T12:05:22.832Z,5.93
2023-05-13T12:07:49.781Z,5.53
2023-05-13T12:10:16.829Z,4.60
2023-05-13T12:12:45.425Z,5.30
2023-05-13T12:15:15.828Z,9.90
2023-05-13T12:17:42.841Z,6.73
2023-05-13T12:20:14.323Z,12.52
2023-05-13T12:22:44.085Z,5.25
2023-05-13T12:25:32.354Z,9.75
2023-05-13T12:27:59.748Z,8.93
2023-05-13T12:30:26.310Z,5.32
2023-05-13T12:32:58.706Z,5.57
2023-05-13T12:35:25.208Z,5.15
2023-05-13T12:38:05.364Z,4.90
2023-05-13T12:40:32.110Z,6.53
2023-05-13T12:43:03.164Z,4.25
2023-05-13T12:45:31.246Z,5.03
2023-05-13T12:47:59.159Z,8.13
2023-05-13T12:50:26.368Z,7.43
2023-05-13T12:52:53.849Z,8.05
2023-05-13T12:55:20.545Z,11.38
2023-05-13T12:57:59.502Z,4.95
2023-05-13T13:00:26.536Z,7.28
2023-05-13T13:02:54.103Z,5.40
2023-05-13T13:05:27.205Z,4.10
2023-05-13T13:07:53.659Z,5.53
2023-05-13T13:10:20.361Z,6.05
2023-05-13T13:12:46.977Z,5.25
2023-05-13T13:15:13.484Z,4.63
2023-05-13T13:17:39.988Z,5.15
2023-05-13T13:20:07.835Z,4.80
2023-05-13T13:22:36.908Z,8.32
2023-05-13T13:25:06.997Z,5.40
2023-05-13T13:27:34.710Z,4.35
2023-05-13T13:30:01.191Z,5.03
2023-05-13T13:32:27.858Z,6.47
2023-05-13T13:34:54.559Z,4.85
2023-05-13T13:37:21.102Z,4.50
2023-05-13T13:39:47.532Z,6.68
2023-05-13T13:42:14.032Z,5.88
2023-05-13T13:44:40.505Z,5.25
2023-05-13T13:47:07.132Z,5.25
2023-05-13T13:49:33.598Z,7.18
2023-05-13T13:52:00.134Z,4.85
2023-05-13T13:54:26.642Z,4.75
2023-05-13T13:56:53.323Z,5.03
2023-05-13T13:59:19.872Z,4.15
2023-05-13T14:01:46.746Z,6.55
2023-05-13T14:04:20.249Z,4.35
2023-05-13T14:06:47.000Z,6.88
2023-05-13T14:09:13.518Z,4.20
2023-05-13T14:11:39.976Z,4.18
2023-05-13T14:14:06.902Z,5.28
2023-05-13T14:16:33.461Z,6.32
2023-05-13T14:19:00.035Z,4.05
2023-05-13T14:21:26.520Z,4.82
2023-05-13T14:23:53.131Z,4.78
2023-05-13T14:26:19.731Z,5.13
2023-05-13T14:28:46.314Z,6.00
2023-05-13T14:31:12.841Z,4.07
2023-05-13T14:33:39.297Z,4.43
2023-05-13T14:36:06.339Z,5.72
2023-05-13T14:38:32.834Z,3.88
2023-05-13T14:40:59.252Z,7.70
2023-05-13T14:43:25.930Z,5.68
2023-05-13T14:45:52.396Z,4.45
2023-05-13T14:48:19.406Z,9.68
2023-05-13T14:50:47.665Z,7.00
2023-05-13T14:53:14.075Z,6.82
2023-05-13T14:55:40.947Z,4.55
2023-05-13T14:58:09.074Z,3.78
2023-05-13T15:00:37.581Z,3.88
2023-05-13T15:03:05.695Z,4.68
2023-05-13T15:05:32.331Z,7.93
2023-05-13T15:07:59.996Z,4.72
2023-05-13T15:10:26.488Z,6.47
2023-05-13T15:12:52.925Z,7.15
2023-05-13T15:15:19.512Z,4.25
2023-05-13T15:17:46.062Z,6.65
2023-05-13T15:20:12.700Z,6.05
2023-05-13T15:22:39.128Z,3.47
2023-05-13T15:25:06.038Z,3.78
2023-05-13T15:27:32.500Z,4.28
2023-05-13T15:29:58.912Z,6.70
2023-05-13T15:32:25.369Z,5.45
2023-05-13T15:34:51.817Z,5.22
2023-05-13T15:37:18.267Z,3.63
2023-05-13T15:39:45.041Z,5.00
2023-05-13T15:42:11.477Z,7.95
2023-05-13T15:44:37.895Z,9.88
2023-05-13T15:47:06.000Z,6.82
2023-05-13T15:49:35.730Z,8.65
2023-05-13T15:52:04.846Z,5.75
2023-05-13T15:54:32.759Z,13.50
2023-05-13T15:57:00.133Z,12.88
2023-05-13T15:59:26.736Z,5.72
2023-05-13T16:01:53.211Z,7.22
2023-05-13T16:04:19.797Z,6.20
2023-05-13T16:06:46.225Z,6.03
2023-05-13T16:09:12.770Z,8.98
2023-05-13T16:11:39.243Z,7.30
2023-05-13T16:14:07.516Z,16.00
2023-05-13T16:16:34.052Z,8.13
2023-05-13T16:19:03.446Z,6.22
2023-05-13T16:21:31.493Z,5.18
2023-05-13T16:23:58.144Z,6.45
2023-05-13T16:26:24.775Z,5.40
2023-05-13T16:28:51.602Z,6.15
2023-05-13T16:31:18.252Z,5.95
2023-05-13T16:33:44.689Z,7.10
2023-05-13T16:36:14.019Z,6.25
2023-05-13T16:38:41.481Z,5.65
2023-05-13T16:41:08.631Z,6.35
2023-05-13T16:43:35.097Z,9.05
2023-05-13T16:46:01.575Z,6.78
2023-05-13T16:48:28.247Z,9.60
2023-05-13T16:50:56.130Z,6.25
2023-05-13T16:53:22.900Z,7.25
2023-05-13T16:55:50.172Z,6.30
2023-05-13T16:58:16.923Z,5.68
2023-05-13T17:00:43.663Z,7.80
2023-05-13T17:03:10.948Z,5.40
2023-05-13T17:05:37.609Z,5.43
2023-05-13T17:08:04.283Z,6.03
2023-05-13T17:10:30.689Z,7.50
2023-05-13T17:12:58.432Z,9.10
2023-05-13T17:15:25.190Z,7.38
2023-05-13T17:17:51.743Z,6.93
2023-05-13T17:20:19.606Z,11.85
2023-05-13T17:22:47.372Z,5.90
2023-05-13T17:25:14.653Z,6.70
2023-05-13T17:27:41.272Z,10.32
2023-05-13T17:30:08.686Z,7.85
2023-05-13T17:32:35.695Z,7.63
2023-05-13T17:35:03.311Z,12.48
2023-05-13T17:37:29.809Z,6.35
2023-05-13T17:39:57.558Z,12.23
2023-05-13T17:42:23.937Z,7.32
2023-05-13T17:44:50.501Z,7.38
2023-05-13T17:47:16.982Z,8.82
2023-05-13T17:49:43.598Z,11.80
2023-05-13T17:52:12.942Z,6.32
2023-05-13T17:54:39.642Z,7.63
2023-05-13T17:57:06.095Z,6.20
2023-05-13T17:59:32.638Z,7.88
2023-05-13T18:02:00.277Z,5.50
2023-05-13T18:04:26.743Z,6.35
2023-05-13T18:06:53.206Z,9.27
2023-05-13T18:09:19.894Z,5.88
2023-05-13T18:11:46.394Z,6.38
2023-05-13T18:14:12.818Z,8.10
2023-05-13T18:16:39.323Z,7.80
2023-05-13T18:19:06.776Z,10.73
2023-05-13T18:21:33.396Z,5.72
2023-05-13T18:24:00.000Z,9.00
2023-05-13T18:26:26.599Z,7.18
2023-05-13T18:28:53.097Z,6.68
2023-05-13T18:31:19.671Z,7.93
2023-05-13T18:33:46.122Z,10.40
2023-05-13T18:36:12.535Z,6.78
2023-05-13T18:38:39.515Z,8.68
2023-05-13T18:41:06.213Z,9.75
2023-05-13T18:43:32.783Z,9.35
2023-05-13T18:45:59.297Z,6.90
2023-05-13T18:48:25.797Z,6.82
2023-05-13T18:50:53.136Z,10.68
2023-05-13T18:53:19.857Z,11.88
2023-05-13T18:55:46.607Z,9.80
2023-05-13T18:58:13.727Z,9.85
2023-05-13T19:00:40.185Z,7.13
2023-05-13T19:03:06.870Z,6.47
2023-05-13T19:05:33.409Z,7.28
2023-05-13T19:08:00.573Z,6.07
2023-05-13T19:10:27.313Z,6.55
2023-05-13T19:12:53.801Z,9.80
2023-05-13T19:15:21.316Z,6.78
2023-05-13T19:17:48.034Z,11.55
2023-05-13T19:20:16.438Z,6.68
2023-05-13T19:22:43.146Z,7.20
2023-05-13T19:25:09.866Z,7.10
2023-05-13T19:27:36.866Z,6.85
2023-05-13T19:30:03.727Z,7.25
2023-05-13T19:32:30.348Z,6.65
2023-05-13T19:34:56.859Z,6.50
2023-05-13T19:37:23.422Z,6.80
2023-05-13T19:39:49.855Z,9.07
2023-05-13T19:42:16.377Z,6.88
2023-05-13T19:44:42.805Z,7.53
2023-05-13T19:47:09.467Z,6.40
2023-05-13T19:49:35.917Z,15.65
2023-05-13T19:52:02.628Z,13.10
2023-05-13T19:54:29.179Z,6.72
2023-05-13T19:56:56.177Z,8.60
2023-05-13T19:59:22.714Z,13.00
2023-05-13T20:01:49.236Z,7.53
2023-05-13T20:04:16.391Z,9.55
2023-05-13T20:06:42.871Z,11.82
2023-05-13T20:09:11.828Z,8.18
2023-05-13T20:11:38.304Z,10.45
2023-05-13T20:14:04.851Z,8.82
2023-05-13T20:16:31.339Z,15.45
2023-05-13T20:18:57.832Z,11.85
2023-05-13T20:21:24.346Z,10.63
2023-05-13T20:23:50.934Z,9.65
2023-05-13T20:26:17.446Z,8.77
2023-05-13T20:28:45.651Z,11.68
2023-05-13T20:31:12.262Z,8.85
2023-05-13T20:33:38.790Z,11.43
2023-05-13T20:36:06.737Z,11.50
2023-05-13T20:38:33.382Z,12.13
2023-05-13T20:40:59.931Z,9.93
2023-05-13T20:43:26.385Z,10.57
2023-05-13T20:45:53.085Z,9.15
2023-05-13T20:48:19.584Z,9.13
2023-05-13T20:50:46.171Z,13.63
2023-05-13T20:53:12.687Z,9.32
2023-05-13T20:55:39.239Z,10.52
2023-05-13T20:58:05.740Z,13.13
2023-05-13T21:00:32.197Z,17.15
2023-05-13T21:02:59.753Z,10.75
2023-05-13T21:05:26.326Z,14.77
2023-05-13T21:07:52.750Z,12.40
2023-05-13T21:10:19.244Z,12.80
2023-05-13T21:12:47.744Z,18.85
2023-05-13T21:15:14.731Z,10.63
2023-05-13T21:17:41.272Z,15.18
2023-05-13T21:20:08.576Z,15.98
2023-05-13T21:22:35.106Z,10.85
2023-05-13T21:25:01.577Z,11.18
2023-05-13T21:27:27.968Z,11.65
2023-05-13T21:29:54.454Z,11.32
2023-05-13T21:32:20.980Z,13.15
2023-05-13T21:34:47.512Z,14.50
2023-05-13T21:37:14.418Z,14.65
2023-05-13T21:39:41.347Z,11.82
2023-05-13T21:42:07.959Z,12.77
2023-05-13T21:44:34.787Z,14.75
2023-05-13T21:47:01.236Z,13.68
2023-05-13T21:49:27.764Z,14.57
2023-05-13T21:51:54.195Z,15.38
2023-05-13T21:54:20.755Z,15.80
2023-05-13T21:56:47.197Z,16.75
2023-05-13T21:59:13.656Z,15.15
2023-05-13T22:01:40.137Z,14.80
2023-05-13T22:04:06.732Z,15.55
2023-05-13T22:06:33.509Z,16.63
2023-05-13T22:09:01.104Z,12.55
2023-05-13T22:11:27.841Z,17.58
2023-05-13T22:13:54.351Z,13.77
2023-05-13T22:16:20.979Z,16.17
2023-05-13T22:18:48.800Z,12.55
2023-05-13T22:21:15.506Z,18.95
2023-05-13T22:23:42.039Z,14.55
2023-05-13T22:26:08.500Z,13.48
2023-05-13T22:28:34.974Z,14.00
2023-05-13T22:31:01.513Z,17.38
2023-05-13T22:33:27.975Z,14.27
2023-05-13T22:35:54.481Z,14.40
2023-05-13T22:38:20.894Z,17.58
2023-05-13T22:40:47.420Z,15.93
2023-05-13T22:43:13.833Z,15.90
2023-05-13T22:45:40.564Z,16.35
2023-05-13T22:48:07.842Z,17.35
2023-05-13T22:50:34.384Z,16.08
2023-05-13T22:53:00.992Z,14.05
2023-05-13T22:55:27.470Z,15.85
2023-05-13T22:57:53.922Z,16.95
2023-05-13T23:00:20.487Z,14.30
2023-05-13T23:02:47.036Z,17.25
2023-05-13T23:05:13.649Z,14.65
2023-05-13T23:07:40.062Z,14.23
2023-05-13T23:10:06.988Z,15.05
2023-05-13T23:12:33.479Z,16.02
2023-05-13T23:15:00.005Z,17.33
2023-05-13T23:17:26.554Z,15.90
2023-05-13T23:19:53.057Z,14.02
2023-05-13T23:22:19.500Z,17.88
2023-05-13T23:24:45.975Z,16.95
2023-05-13T23:27:12.615Z,14.60
2023-05-13T23:29:39.187Z,20.55
2023-05-13T23:32:06.999Z,16.83
2023-05-13T23:34:33.756Z,17.30
2023-05-13T23:37:00.235Z,14.02
2023-05-13T23:39:26.711Z,14.98
2023-05-13T23:41:53.179Z,15.07
2023-05-13T23:44:19.644Z,22.65
2023-05-13T23:46:46.123Z,20.25
2023-05-13T23:49:12.602Z,19.40
2023-05-13T23:51:39.029Z,16.77
2023-05-13T23:54:05.745Z,14.07
2023-05-13T23:56:32.226Z,17.45
2023-05-13T23:58:58.711Z,18.98
